createdAt,value
2019-02-26T00:04:39.834Z,3.00
2019-02-26T00:09:34.640Z,2.90
2019-02-26T00:14:22.573Z,3.30
2019-02-26T00:19:14.407Z,3.70
2019-02-26T00:24:04.965Z,3.60
2019-02-26T00:28:54.636Z,3.40
2019-02-26T00:33:46.317Z,2.90
2019-02-26T00:38:38.157Z,2.90
2019-02-26T00:43:30.641Z,2.60
2019-02-26T00:48:20.048Z,2.60
2019-02-26T00:53:11.711Z,2.80
2019-02-26T00:58:03.293Z,2.80
2019-02-26T01:02:53.628Z,3.30
2019-02-26T01:07:47.393Z,3.00
2019-02-26T01:12:37.670Z,2.90
2019-02-26T01:17:27.198Z,2.70
2019-02-26T01:22:18.108Z,2.50
2019-02-26T01:27:09.036Z,2.40
2019-02-26T01:32:02.150Z,2.10
2019-02-26T01:36:51.663Z,2.10
2019-02-26T01:41:45.484Z,2.10
2019-02-26T01:46:34.564Z,2.90
2019-02-26T01:51:26.151Z,2.80
2019-02-26T01:56:17.720Z,2.70
2019-02-26T02:01:07.089Z,2.50
2019-02-26T02:05:58.002Z,2.30
2019-02-26T02:10:49.609Z,2.20
2019-02-26T02:15:42.276Z,2.00
2019-02-26T02:20:31.554Z,1.90
2019-02-26T02:25:22.486Z,1.90
2019-02-26T02:30:17.867Z,2.00
2019-02-26T02:35:06.827Z,2.60
2019-02-26T02:39:56.048Z,2.70
2019-02-26T02:44:49.282Z,2.50
2019-02-26T02:49:39.897Z,2.30
2019-02-26T02:54:29.612Z,2.00
2019-02-26T02:59:20.533Z,1.90
2019-02-26T03:04:14.792Z,1.80
2019-02-26T03:09:02.388Z,1.80
2019-02-26T03:13:53.859Z,1.70
2019-02-26T03:18:44.256Z,1.90
2019-02-26T03:23:38.028Z,2.50
2019-02-26T03:28:26.174Z,2.50
2019-02-26T03:33:17.103Z,2.30
2019-02-26T03:38:08.028Z,2.10
2019-02-26T03:42:58.956Z,1.90
2019-02-26T03:47:50.616Z,1.60
2019-02-26T03:52:41.529Z,1.70
2019-02-26T03:57:33.193Z,1.50
2019-02-26T04:02:24.135Z,1.50
2019-02-26T04:07:15.056Z,1.60
2019-02-26T04:12:07.618Z,2.20
2019-02-26T04:16:58.723Z,2.20
2019-02-26T04:22:00.847Z,2.10
2019-02-26T04:26:56.436Z,1.80
2019-02-26T04:31:57.590Z,1.70
2019-02-26T04:36:49.039Z,1.70
2019-02-26T04:41:59.794Z,1.50
2019-02-26T04:46:51.460Z,1.50
2019-02-26T04:51:44.877Z,1.40
2019-02-26T04:56:35.998Z,1.50
2019-02-26T05:01:23.898Z,2.10
2019-02-26T05:06:14.818Z,2.30
2019-02-26T05:11:05.720Z,2.10
2019-02-26T05:15:56.621Z,1.90
2019-02-26T05:20:48.411Z,1.70
2019-02-26T05:25:39.727Z,1.60
2019-02-26T05:30:29.383Z,1.50
2019-02-26T05:35:22.772Z,1.50
2019-02-26T05:40:13.389Z,1.50
2019-02-26T05:45:03.863Z,1.50
2019-02-26T05:49:53.041Z,1.90
2019-02-26T05:54:43.946Z,2.50
2019-02-26T05:59:35.581Z,2.30
2019-02-26T06:04:27.220Z,2.10
2019-02-26T06:09:20.056Z,2.00
2019-02-26T06:14:12.643Z,2.00
2019-02-26T06:19:00.756Z,2.00
2019-02-26T06:23:52.395Z,1.90
2019-02-26T06:28:45.438Z,1.90
2019-02-26T06:33:36.165Z,1.90
2019-02-26T06:38:26.408Z,2.20
2019-02-26T06:43:16.809Z,2.80
2019-02-26T06:48:12.595Z,2.60
2019-02-26T06:52:59.357Z,2.60
2019-02-26T06:57:52.794Z,2.40
2019-02-26T07:02:45.461Z,2.30
2019-02-26T07:07:32.078Z,2.20
2019-02-26T07:12:24.003Z,2.20
2019-02-26T07:17:13.882Z,2.20
2019-02-26T07:22:05.510Z,2.20
2019-02-26T07:26:55.720Z,2.30
2019-02-26T07:31:47.303Z,3.00
2019-02-26T07:36:37.768Z,3.10
2019-02-26T07:41:30.343Z,3.10
2019-02-26T07:46:21.494Z,2.90
2019-02-26T07:51:10.505Z,2.80
2019-02-26T07:56:04.547Z,2.80
2019-02-26T08:00:53.100Z,2.80
2019-02-26T08:05:43.979Z,2.90
2019-02-26T08:10:39.382Z,3.20
2019-02-26T08:15:27.784Z,3.10
2019-02-26T08:20:17.493Z,3.90
2019-02-26T08:25:08.371Z,4.20
2019-02-26T08:30:00.896Z,4.10
2019-02-26T08:34:50.934Z,4.00
2019-02-26T08:39:41.829Z,4.10
2019-02-26T08:44:33.538Z,4.20
2019-02-26T08:49:24.469Z,4.10
2019-02-26T08:54:20.938Z,4.30
2019-02-26T08:59:06.294Z,4.40
2019-02-26T09:03:58.950Z,4.90
2019-02-26T09:08:48.117Z,5.60
2019-02-26T09:13:41.049Z,5.70
2019-02-26T09:18:31.497Z,5.60
2019-02-26T09:23:21.252Z,5.60
2019-02-26T09:28:11.765Z,5.60
2019-02-26T09:33:03.392Z,5.70
2019-02-26T09:37:56.273Z,5.80
2019-02-26T09:42:46.405Z,5.90
2019-02-26T09:47:35.440Z,6.30
2019-02-26T09:52:27.678Z,7.00
2019-02-26T09:57:18.034Z,7.10
2019-02-26T10:02:08.211Z,7.10
2019-02-26T10:06:59.129Z,7.10
2019-02-26T10:11:51.606Z,7.10
2019-02-26T10:16:40.933Z,7.20
2019-02-26T10:21:34.767Z,7.60
2019-02-26T10:26:26.160Z,7.50
2019-02-26T10:31:14.392Z,8.20
2019-02-26T10:36:07.945Z,8.50
2019-02-26T10:40:59.265Z,8.50
2019-02-26T10:45:50.054Z,8.50
2019-02-26T10:50:40.342Z,8.60
2019-02-26T10:55:35.278Z,8.70
2019-02-26T11:00:22.585Z,8.70
2019-02-26T11:05:14.297Z,9.00
2019-02-26T11:10:04.037Z,9.70
2019-02-26T11:14:56.343Z,9.90
2019-02-26T11:19:45.854Z,10.00
2019-02-26T11:24:36.843Z,10.00
2019-02-26T11:29:28.558Z,10.00
2019-02-26T11:34:19.416Z,10.20
2019-02-26T11:39:12.109Z,10.50
2019-02-26T11:44:02.033Z,10.50
2019-02-26T11:48:54.938Z,11.10
2019-02-26T11:53:45.792Z,11.20
2019-02-26T11:58:34.982Z,11.20
2019-02-26T12:03:28.071Z,11.10
2019-02-26T12:08:19.360Z,11.20
2019-02-26T12:13:07.702Z,11.30
2019-02-26T12:17:58.805Z,11.60
2019-02-26T12:22:52.308Z,12.20
2019-02-26T12:27:43.087Z,12.20
2019-02-26T12:32:32.099Z,12.10
2019-02-26T12:37:22.988Z,12.00
2019-02-26T12:42:15.947Z,11.90
2019-02-26T12:47:05.524Z,11.90
2019-02-26T12:51:57.650Z,12.20
2019-02-26T12:56:49.045Z,12.60
2019-02-26T13:01:40.809Z,12.40
2019-02-26T13:06:29.891Z,12.40
2019-02-26T13:11:24.237Z,12.40
2019-02-26T13:16:11.762Z,12.30
2019-02-26T13:21:08.886Z,12.60
2019-02-26T13:25:55.056Z,13.00
2019-02-26T13:30:45.949Z,12.90
2019-02-26T13:35:37.585Z,12.90
2019-02-26T13:40:28.514Z,12.90
2019-02-26T13:45:19.387Z,12.80
2019-02-26T13:50:10.350Z,12.80
2019-02-26T13:55:01.985Z,13.30
2019-02-26T13:59:53.633Z,13.50
2019-02-26T14:04:44.524Z,13.40
2019-02-26T14:09:35.417Z,13.40
2019-02-26T14:14:26.313Z,13.20
2019-02-26T14:19:17.222Z,13.10
2019-02-26T14:24:08.131Z,13.00
2019-02-26T14:28:59.025Z,13.20
2019-02-26T14:33:50.660Z,13.40
2019-02-26T14:38:42.301Z,13.20
2019-02-26T14:43:34.104Z,13.10
2019-02-26T14:48:25.015Z,13.00
2019-02-26T14:53:15.909Z,13.00
2019-02-26T14:58:06.827Z,13.00
2019-02-26T15:02:57.749Z,13.40
2019-02-26T15:07:48.667Z,13.50
2019-02-26T15:12:39.594Z,13.30
2019-02-26T15:17:30.906Z,13.20
2019-02-26T15:22:21.421Z,13.10
2019-02-26T15:27:12.329Z,13.00
2019-02-26T15:32:03.242Z,13.30
2019-02-26T15:36:54.137Z,13.80
2019-02-26T15:41:48.065Z,13.70
2019-02-26T15:46:37.413Z,13.60
2019-02-26T15:51:29.064Z,13.60
2019-02-26T15:56:19.965Z,13.60
2019-02-26T16:01:12.820Z,14.10
2019-02-26T16:06:02.563Z,14.10
2019-02-26T16:10:53.476Z,14.00
2019-02-26T16:15:44.384Z,13.70
2019-02-26T16:20:36.040Z,13.20
2019-02-26T16:25:26.952Z,13.20
2019-02-26T16:30:19.669Z,13.10
2019-02-26T16:35:11.349Z,13.30
2019-02-26T16:40:02.241Z,13.30
2019-02-26T16:44:55.533Z,12.70
2019-02-26T16:49:44.777Z,12.70
2019-02-26T16:54:35.670Z,12.50
2019-02-26T16:59:26.560Z,12.20
2019-02-26T17:04:17.474Z,12.30
2019-02-26T17:09:08.384Z,12.50
2019-02-26T17:13:59.300Z,12.20
2019-02-26T17:18:50.267Z,11.90
2019-02-26T17:23:41.164Z,11.50
2019-02-26T17:28:32.067Z,11.20
2019-02-26T17:33:29.887Z,11.00
2019-02-26T17:38:20.788Z,11.30
2019-02-26T17:43:11.685Z,11.10
2019-02-26T17:48:02.697Z,10.80
2019-02-26T17:52:53.588Z,10.40
2019-02-26T17:57:44.505Z,10.10
2019-02-26T18:02:36.141Z,10.00
2019-02-26T18:07:27.768Z,10.20
2019-02-26T18:12:18.648Z,10.20
2019-02-26T18:17:09.538Z,10.00
2019-02-26T18:22:00.429Z,9.60
2019-02-26T18:26:52.060Z,9.00
2019-02-26T18:31:43.693Z,8.70
2019-02-26T18:36:34.572Z,8.70
2019-02-26T18:41:25.482Z,8.80
2019-02-26T18:46:16.403Z,9.10
2019-02-26T18:51:07.441Z,8.90
2019-02-26T18:55:58.347Z,8.50
2019-02-26T19:00:49.245Z,8.20
2019-02-26T19:05:40.141Z,8.00
2019-02-26T19:10:31.911Z,7.80
2019-02-26T19:15:26.629Z,7.70
2019-02-26T19:20:18.250Z,8.10
2019-02-26T19:25:09.793Z,8.00
2019-02-26T19:30:04.053Z,7.40
2019-02-26T19:34:52.872Z,7.10
2019-02-26T19:39:44.147Z,6.90
2019-02-26T19:44:36.445Z,6.80
2019-02-26T19:49:26.709Z,6.70
2019-02-26T19:54:17.610Z,7.10
2019-02-26T19:59:08.576Z,7.20
2019-02-26T20:03:59.541Z,7.00
2019-02-26T20:08:50.439Z,6.70
2019-02-26T20:13:42.229Z,6.40
2019-02-26T20:18:32.267Z,6.20
2019-02-26T20:23:23.173Z,6.00
2019-02-26T20:28:14.068Z,6.20
2019-02-26T20:33:04.968Z,6.60
2019-02-26T20:37:58.666Z,6.20
2019-02-26T20:42:47.525Z,6.20
2019-02-26T20:47:39.212Z,5.60
2019-02-26T20:52:32.675Z,5.60
2019-02-26T20:57:21.051Z,5.50
2019-02-26T21:02:11.965Z,5.30
2019-02-26T21:07:02.959Z,5.60
2019-02-26T21:11:55.848Z,6.00
2019-02-26T21:16:44.816Z,5.80
2019-02-26T21:21:35.872Z,5.50
2019-02-26T21:26:26.669Z,5.20
2019-02-26T21:31:19.074Z,5.00
2019-02-26T21:36:08.494Z,4.80
2019-02-26T21:40:59.463Z,4.70
2019-02-26T21:45:51.085Z,5.30
2019-02-26T21:50:41.994Z,5.20
2019-02-26T21:55:44.004Z,5.20
2019-02-26T22:00:24.573Z,4.70
2019-02-26T22:05:16.218Z,4.50
2019-02-26T22:10:09.825Z,4.30
2019-02-26T22:15:00.712Z,4.30
2019-02-26T22:19:52.364Z,4.00
2019-02-26T22:24:43.260Z,4.00
2019-02-26T22:29:36.383Z,4.70
2019-02-26T22:34:26.938Z,4.50
2019-02-26T22:39:22.413Z,4.20
2019-02-26T22:44:09.484Z,4.20
2019-02-26T22:49:00.456Z,4.00
2019-02-26T22:53:51.421Z,3.80
2019-02-26T22:58:42.265Z,3.60
2019-02-26T23:03:33.168Z,3.50
2019-02-26T23:08:24.844Z,4.20
2019-02-26T23:13:15.739Z,4.20
2019-02-26T23:18:06.662Z,4.10
2019-02-26T23:22:57.548Z,3.80
2019-02-26T23:27:49.366Z,3.40
2019-02-26T23:32:40.149Z,3.30
2019-02-26T23:37:34.193Z,3.20
2019-02-26T23:42:21.993Z,3.10
2019-02-26T23:47:12.891Z,2.90
2019-02-26T23:52:03.799Z,3.30
2019-02-26T23:56:55.434Z,3.60
